Kharkov, Ukraine
Current Conditions -  °F | °C
As of 10:30 AM on Friday 24 Oct 2014 (Local Time) from UKHH Reporting Station
Clear Clear  
Wind Chill: 11°   Ceiling: Unl
Heat Index: 23°   Visibility: 6mi
Dew Point: 12°   Wind: 13mph
Humidity: 63%   Direction: 60°ENE
Pressure: 30.45"   Gusts: NA
Location:  49.99°N, 36.21°E
Report Text: UKHH 240730Z 06006MPS CAVOK M05/M11 Q1031 070///65 NOSIG
Loading
Personal Weather Stations






























Interactive Weather Map
Tropical Storm Tracking
New forecast layout! Learn more

10-Day Weather Forecast

Advertisements
Track Severe Weather on mobile